Fort George G Meade, MD

9:47 PM EST on January 19, 2017 (GMT -0500)
Tipton

Weather History for KFME - August, 2013

Change the Weather History Date:

Saturday, August 17, 2013

  Actual Average (KBWI) Record (KBWI)
Temperature  
Mean Temperature 66 °F -  
Max Temperature 78 °F 86 °F 100 °F (1988)
Min Temperature 53 °F 66 °F 53 °F (1979)
Growing Degree Days 16 (Base 50)    
Moisture  
Dew Point 55 °F    
Average Humidity 73    
Maximum Humidity 100    
Minimum Humidity 44    
Precipitation  
Precipitation 0.00 in - - ()
Sea Level Pressure  
Sea Level Pressure 30.26 in    
Wind  
Wind Speed 2 mph (East)    
Max Wind Speed 13 mph    
Max Gust Speed 16 mph    
Visibility 9 miles    
Events      
Averages and records for this station are not official NWS values.
T = Trace of Precipitation, MM = Missing Value Source: NWS Daily Summary

Daily Weather History Graph

Daily Weather History Graph

Search for Another Location

Airport or City:

Trip Planner

Search our weather history database for the weather conditions in past years. The results will help you decide how hot, cold, wet, or windy it might be!

Date:

Astronomy

Aug. 17, 2013 Rise Set
Actual Time 6:22 AM EDT 7:59 PM EDT
Civil Twilight 5:53 AM EDT 8:27 PM EDT
Nautical Twilight 5:19 AM EDT 9:01 PM EDT
Astronomical Twilight 4:43 AM EDT 9:37 PM EDT
Moon 5:11 PM EDT (8/17) 2:24 AM EDT (8/17)
Length of Visible Light 14h 33m
Length of Day
13h 36m
Waxing Gibbous, 84% of the Moon is Illuminated
Aug 17
Waxing Gibbous
Aug 20
Full
Aug 28
Last Quarter
Sep 5
New
Sep 12
First Quarter

Hourly Weather History & Observations

Time (EDT) Temp. Dew Point Humidity Pressure Visibility Wind Dir Wind Speed Gust Speed Precip Events Conditions
12:15 AM 55.4 °F 53.6 °F 94% 30.24 in 10.0 mi Calm Calm - N/A   Clear
12:36 AM 55.4 °F 53.6 °F 94% 30.24 in 10.0 mi Calm Calm - N/A   Clear
12:57 AM 55.4 °F 53.6 °F 94% 30.24 in 7.0 mi Calm Calm - N/A   Clear
1:15 AM 53.6 °F 51.8 °F 94% 30.24 in 7.0 mi Calm Calm - N/A   Clear
1:36 AM 53.6 °F 51.8 °F 94% 30.24 in 10.0 mi Calm Calm - N/A   Clear
1:57 AM 53.6 °F 51.8 °F 94% 30.23 in 5.0 mi Calm Calm - N/A   Clear
2:15 AM 53.6 °F 51.8 °F 94% 30.24 in 7.0 mi Calm Calm - N/A   Clear
2:36 AM 53.6 °F 51.8 °F 94% 30.24 in 5.0 mi Calm Calm - N/A   Clear
2:57 AM 53.6 °F 51.8 °F 94% 30.24 in 7.0 mi Calm Calm - N/A   Clear
3:15 AM 53.6 °F 51.8 °F 94% 30.24 in 7.0 mi Calm Calm - N/A   Clear
3:36 AM 53.6 °F 51.8 °F 94% 30.24 in 7.0 mi Calm Calm - N/A   Clear
3:57 AM 53.6 °F 51.8 °F 94% 30.24 in 7.0 mi Calm Calm - N/A   Clear
4:15 AM 53.6 °F 51.8 °F 94% 30.23 in 7.0 mi Calm Calm - N/A   Clear
4:36 AM 53.6 °F 51.8 °F 94% 30.23 in 7.0 mi Calm Calm - N/A   Clear
4:57 AM 53.6 °F 51.8 °F 94% 30.23 in 7.0 mi Calm Calm - N/A   Clear
5:15 AM 53.6 °F 51.8 °F 94% 30.24 in 7.0 mi Calm Calm - N/A   Clear
5:36 AM 53.6 °F 51.8 °F 94% 30.25 in 7.0 mi Calm Calm - N/A   Clear
5:57 AM 53.6 °F 51.8 °F 94% 30.26 in 7.0 mi Calm Calm - N/A   Clear
6:15 AM 53.6 °F 51.8 °F 94% 30.26 in 7.0 mi Calm Calm - N/A   Clear
6:36 AM 53.6 °F 51.8 °F 94% 30.27 in 4.0 mi Calm Calm - N/A   Clear
6:57 AM 53.6 °F 51.8 °F 94% 30.27 in 4.0 mi Calm Calm - N/A   Clear
7:15 AM 53.6 °F 53.6 °F 100% 30.27 in 5.0 mi Calm Calm - N/A   Clear
7:36 AM 55.4 °F 53.6 °F 94% 30.27 in 7.0 mi Calm Calm - N/A   Clear
7:57 AM 57.2 °F 55.4 °F 94% 30.27 in 7.0 mi Calm Calm - N/A   Clear
8:15 AM 59.0 °F 55.4 °F 88% 30.28 in 7.0 mi Calm Calm - N/A   Clear
8:36 AM 59.0 °F 59.0 °F 100% 30.28 in 10.0 mi Calm Calm - N/A   Clear
8:57 AM 60.8 °F 59.0 °F 94% 30.28 in 10.0 mi Calm Calm - N/A   Clear
9:18 AM 62.6 °F 59.0 °F 88% 30.29 in 10.0 mi Calm Calm - N/A   Clear
9:36 AM 66.2 °F 59.0 °F 78% 30.29 in 10.0 mi Calm Calm - N/A   Clear
9:57 AM 69.8 °F 59.0 °F 68% 30.29 in 10.0 mi ENE 5.8 mph - N/A   Clear
10:15 AM 71.6 °F 59.0 °F 64% 30.29 in 10.0 mi ENE 3.5 mph - N/A   Clear
10:36 AM 73.4 °F 57.2 °F 57% 30.29 in 10.0 mi NE 4.6 mph - N/A   Clear
10:57 AM 73.4 °F 55.4 °F 53% 30.29 in 10.0 mi ENE 6.9 mph - N/A   Clear
11:18 AM 77.0 °F 55.4 °F 47% 30.29 in 10.0 mi East 9.2 mph - N/A   Clear
11:36 AM 77.0 °F 55.4 °F 47% 30.29 in 10.0 mi ENE 6.9 mph - N/A   Clear
11:57 AM 77.0 °F 55.4 °F 47% 30.29 in 10.0 mi East 9.2 mph - N/A   Clear
12:18 PM 77.0 °F 55.4 °F 47% 30.28 in 10.0 mi East 9.2 mph - N/A   Clear
12:36 PM 77.0 °F 55.4 °F 47% 30.28 in 10.0 mi East 9.2 mph 16.1 mph N/A   Clear
12:57 PM 77.0 °F 53.6 °F 44% 30.28 in 10.0 mi ESE 8.1 mph - N/A   Clear
1:18 PM 77.0 °F 53.6 °F 44% 30.28 in 10.0 mi East 8.1 mph - N/A   Clear
1:36 PM 77.0 °F 53.6 °F 44% 30.27 in 10.0 mi ESE 11.5 mph - N/A   Clear
1:57 PM 77.0 °F 53.6 °F 44% 30.27 in 10.0 mi ESE 12.7 mph - N/A   Clear
2:18 PM 75.2 °F 53.6 °F 47% 30.27 in 10.0 mi ESE 6.9 mph - N/A   Clear
2:36 PM 75.2 °F 53.6 °F 47% 30.27 in 10.0 mi East 10.4 mph - N/A   Clear
2:57 PM 77.0 °F 55.4 °F 47% 30.27 in 10.0 mi SE 10.4 mph - N/A   Clear
3:18 PM 77.0 °F 55.4 °F 47% 30.26 in 10.0 mi East 11.5 mph - N/A   Clear
3:36 PM 78.8 °F 55.4 °F 44% 30.26 in 10.0 mi East 5.8 mph - N/A   Clear
3:57 PM 77.0 °F 55.4 °F 47% 30.26 in 10.0 mi SE 5.8 mph - N/A   Scattered Clouds
4:18 PM 78.8 °F 55.4 °F 44% 30.25 in 10.0 mi SE 8.1 mph - N/A   Scattered Clouds
4:36 PM 77.0 °F 53.6 °F 44% 30.25 in 10.0 mi East 5.8 mph - N/A   Clear
4:57 PM 77.0 °F 55.4 °F 47% 30.25 in 10.0 mi ESE 8.1 mph - N/A   Scattered Clouds
5:18 PM 75.2 °F 55.4 °F 50% 30.25 in 10.0 mi East 9.2 mph - N/A   Scattered Clouds
5:39 PM 75.2 °F 53.6 °F 47% 30.25 in 10.0 mi ESE 9.2 mph - N/A   Scattered Clouds
5:57 PM 75.2 °F 53.6 °F 47% 30.25 in 10.0 mi ESE 9.2 mph - N/A   Clear
6:18 PM 73.4 °F 53.6 °F 50% 30.25 in 10.0 mi ESE 6.9 mph - N/A   Clear
6:39 PM 73.4 °F 53.6 °F 50% 30.25 in 10.0 mi ESE 8.1 mph - N/A   Clear
6:57 PM 73.4 °F 53.6 °F 50% 30.25 in 10.0 mi ESE 6.9 mph - N/A   Clear
7:18 PM 71.6 °F 53.6 °F 53% 30.25 in 10.0 mi East 5.8 mph - N/A   Clear
7:39 PM 69.8 °F 57.2 °F 64% 30.25 in 10.0 mi East 5.8 mph - N/A   Clear
7:57 PM 68.0 °F 59.0 °F 73% 30.26 in 10.0 mi ESE 4.6 mph - N/A   Clear
8:18 PM 66.2 °F 60.8 °F 83% 30.26 in 10.0 mi Calm Calm - N/A   Clear
8:39 PM 66.2 °F 60.8 °F 83% 30.26 in 10.0 mi Calm Calm - N/A   Clear
8:57 PM 64.4 °F 60.8 °F 88% 30.26 in 10.0 mi Calm Calm - N/A   Clear
9:18 PM 64.4 °F 59.0 °F 83% 30.27 in 10.0 mi Calm Calm - N/A   Clear
9:39 PM 64.4 °F 59.0 °F 83% 30.28 in 10.0 mi Calm Calm - N/A   Clear
9:57 PM 66.2 °F 59.0 °F 78% 30.27 in 10.0 mi East 4.6 mph - N/A   Clear
10:18 PM 66.2 °F 59.0 °F 78% 30.27 in 10.0 mi East 5.8 mph - N/A   Clear
10:39 PM 68.0 °F 59.0 °F 73% 30.27 in 10.0 mi ESE 5.8 mph - N/A   Scattered Clouds
10:57 PM 66.2 °F 60.8 °F 83% 30.27 in 10.0 mi ESE 5.8 mph - N/A   Scattered Clouds
11:18 PM 68.0 °F 60.8 °F 78% 30.27 in 10.0 mi ESE 5.8 mph - N/A   Clear
11:39 PM 68.0 °F 60.8 °F 78% 30.26 in 10.0 mi East 4.6 mph - N/A   Clear
11:57 PM 66.2 °F 60.8 °F 83% 30.26 in 10.0 mi East 4.6 mph - N/A   Clear